sensor_id;sensor_type;location;lat;lon;timestamp;pressure;altitude;pressure_sealevel;temperature
76347;BMP280;73309;48.818;9.806;2023-12-28T00:00:13;96426.78;;;9.98
76347;BMP280;73309;48.818;9.806;2023-12-28T00:02:38;96434.22;;;10.01
76347;BMP280;73309;48.818;9.806;2023-12-28T00:05:04;96425.78;;;10.01
76347;BMP280;73309;48.818;9.806;2023-12-28T00:07:29;96420.91;;;10.01
76347;BMP280;73309;48.818;9.806;2023-12-28T00:09:55;96419.66;;;10.02
76347;BMP280;73309;48.818;9.806;2023-12-28T00:12:22;96426.81;;;10.03
76347;BMP280;73309;48.818;9.806;2023-12-28T00:14:47;96430.72;;;10.06
76347;BMP280;73309;48.818;9.806;2023-12-28T00:17:12;96424.00;;;10.03
76347;BMP280;73309;48.818;9.806;2023-12-28T00:19:38;96425.88;;;10.06
76347;BMP280;73309;48.818;9.806;2023-12-28T00:22:03;96430.72;;;10.06
76347;BMP280;73309;48.818;9.806;2023-12-28T00:24:28;96433.06;;;10.07
76347;BMP280;73309;48.818;9.806;2023-12-28T00:26:54;96433.31;;;10.09
76347;BMP280;73309;48.818;9.806;2023-12-28T00:29:21;96430.50;;;10.09
76347;BMP280;73309;48.818;9.806;2023-12-28T00:31:46;96444.59;;;10.09
76347;BMP280;73309;48.818;9.806;2023-12-28T00:34:11;96447.41;;;10.09
76347;BMP280;73309;48.818;9.806;2023-12-28T00:36:37;96447.16;;;10.07
76347;BMP280;73309;48.818;9.806;2023-12-28T00:39:02;96447.16;;;10.07
76347;BMP280;73309;48.818;9.806;2023-12-28T00:41:28;96449.22;;;10.07
76347;BMP280;73309;48.818;9.806;2023-12-28T00:43:53;96445.59;;;10.06
76347;BMP280;73309;48.818;9.806;2023-12-28T00:46:20;96444.06;;;10.05
76347;BMP280;73309;48.818;9.806;2023-12-28T00:48:45;96455.34;;;10.05
76347;BMP280;73309;48.818;9.806;2023-12-28T00:51:10;96450.97;;;10.04
76347;BMP280;73309;48.818;9.806;2023-12-28T00:53:36;96447.63;;;10.06
76347;BMP280;73309;48.818;9.806;2023-12-28T00:56:01;96453.81;;;10.04
76347;BMP280;73309;48.818;9.806;2023-12-28T00:58:27;96435.81;;;10.02
76347;BMP280;73309;48.818;9.806;2023-12-28T01:00:52;96450.13;;;9.98
76347;BMP280;73309;48.818;9.806;2023-12-28T01:03:19;96452.19;;;10.03
76347;BMP280;73309;48.818;9.806;2023-12-28T01:05:44;96437.06;;;10.01
76347;BMP280;73309;48.818;9.806;2023-12-28T01:08:09;96444.75;;;10.00
76347;BMP280;73309;48.818;9.806;2023-12-28T01:10:35;96452.16;;;9.98
76347;BMP280;73309;48.818;9.806;2023-12-28T01:13:00;96452.63;;;9.96
76347;BMP280;73309;48.818;9.806;2023-12-28T01:15:26;96455.75;;;9.98
76347;BMP280;73309;48.818;9.806;2023-12-28T01:17:51;96452.63;;;9.96
76347;BMP280;73309;48.818;9.806;2023-12-28T01:20:18;96455.75;;;9.98
76347;BMP280;73309;48.818;9.806;2023-12-28T01:22:43;96452.94;;;9.98
76347;BMP280;73309;48.818;9.806;2023-12-28T01:25:08;96452.63;;;9.96
76347;BMP280;73309;48.818;9.806;2023-12-28T01:27:34;96454.19;;;9.97
76347;BMP280;73309;48.818;9.806;2023-12-28T01:29:59;96452.63;;;9.96
76347;BMP280;73309;48.818;9.806;2023-12-28T01:32:24;96447.00;;;9.96
76347;BMP280;73309;48.818;9.806;2023-12-28T01:34:50;96454.19;;;9.97
76347;BMP280;73309;48.818;9.806;2023-12-28T01:37:17;96443.13;;;9.94
76347;BMP280;73309;48.818;9.806;2023-12-28T01:39:42;96453.44;;;9.97
76347;BMP280;73309;48.818;9.806;2023-12-28T01:42:08;96447.00;;;9.96
76347;BMP280;73309;48.818;9.806;2023-12-28T01:44:33;96437.38;;;9.83
76347;BMP280;73309;48.818;9.806;2023-12-28T01:46:59;96463.41;;;9.98
76347;BMP280;73309;48.818;9.806;2023-12-28T01:49:25;96464.97;;;9.99
76347;BMP280;73309;48.818;9.806;2023-12-28T01:51:51;96472.66;;;9.98
76347;BMP280;73309;48.818;9.806;2023-12-28T01:54:18;96476.47;;;9.95
76347;BMP280;73309;48.818;9.806;2023-12-28T01:56:43;96478.31;;;9.98
76347;BMP280;73309;48.818;9.806;2023-12-28T01:59:09;96478.31;;;9.98
76347;BMP280;73309;48.818;9.806;2023-12-28T02:01:35;96484.69;;;9.99
76347;BMP280;73309;48.818;9.806;2023-12-28T02:04:01;96480.34;;;9.98
76347;BMP280;73309;48.818;9.806;2023-12-28T02:06:26;96484.69;;;9.99
76347;BMP280;73309;48.818;9.806;2023-12-28T02:08:51;96492.66;;;10.00
76347;BMP280;73309;48.818;9.806;2023-12-28T02:11:19;96493.94;;;9.99
76347;BMP280;73309;48.818;9.806;2023-12-28T02:13:44;96493.94;;;9.99
76347;BMP280;73309;48.818;9.806;2023-12-28T02:16:13;96493.94;;;9.99
76347;BMP280;73309;48.818;9.806;2023-12-28T02:18:43;96493.94;;;9.99
76347;BMP280;73309;48.818;9.806;2023-12-28T02:21:09;96497.72;;;9.96
76347;BMP280;73309;48.818;9.806;2023-12-28T02:23:34;96491.59;;;9.98
76347;BMP280;73309;48.818;9.806;2023-12-28T02:26:01;96499.28;;;9.97
76347;BMP280;73309;48.818;9.806;2023-12-28T02:28:26;96499.22;;;9.92
76347;BMP280;73309;48.818;9.806;2023-12-28T02:30:52;96504.16;;;9.97
76347;BMP280;73309;48.818;9.806;2023-12-28T02:33:21;96504.16;;;9.97
76347;BMP280;73309;48.818;9.806;2023-12-28T02:35:54;96505.44;;;9.96
76347;BMP280;73309;48.818;9.806;2023-12-28T02:38:23;96502.63;;;9.96
76347;BMP280;73309;48.818;9.806;2023-12-28T02:40:48;96506.19;;;9.96
76347;BMP280;73309;48.818;9.806;2023-12-28T02:43:16;96508.75;;;9.94
76347;BMP280;73309;48.818;9.806;2023-12-28T02:45:41;96515.13;;;9.95
76347;BMP280;73309;48.818;9.806;2023-12-28T02:48:07;96504.66;;;9.95
76347;BMP280;73309;48.818;9.806;2023-12-28T02:50:33;96501.56;;;9.93
76347;BMP280;73309;48.818;9.806;2023-12-28T02:52:59;96502.31;;;9.94
76347;BMP280;73309;48.818;9.806;2023-12-28T02:55:25;96502.81;;;9.92
76347;BMP280;73309;48.818;9.806;2023-12-28T02:57:51;96514.59;;;9.91
76347;BMP280;73309;48.818;9.806;2023-12-28T03:00:18;96500.78;;;9.93
76347;BMP280;73309;48.818;9.806;2023-12-28T03:02:43;96514.06;;;9.92
76347;BMP280;73309;48.818;9.806;2023-12-28T03:05:09;96494.34;;;9.92
76347;BMP280;73309;48.818;9.806;2023-12-28T03:07:35;96502.81;;;9.92
76347;BMP280;73309;48.818;9.806;2023-12-28T03:10:01;96502.03;;;9.92
76347;BMP280;73309;48.818;9.806;2023-12-28T03:12:27;96504.38;;;9.93
76347;BMP280;73309;48.818;9.806;2023-12-28T03:14:53;96491.03;;;9.94
76347;BMP280;73309;48.818;9.806;2023-12-28T03:17:19;96489.00;;;9.94
76347;BMP280;73309;48.818;9.806;2023-12-28T03:19:45;96486.63;;;9.87
76347;BMP280;73309;48.818;9.806;2023-12-28T03:22:10;96484.13;;;9.95
76347;BMP280;73309;48.818;9.806;2023-12-28T03:24:36;96490.56;;;9.95
76347;BMP280;73309;48.818;9.806;2023-12-28T03:27:02;96478.94;;;9.88
76347;BMP280;73309;48.818;9.806;2023-12-28T03:29:27;96492.09;;;9.96
76347;BMP280;73309;48.818;9.806;2023-12-28T03:31:53;96491.13;;;9.99
76347;BMP280;73309;48.818;9.806;2023-12-28T03:34:19;96496.75;;;9.99
76347;BMP280;73309;48.818;9.806;2023-12-28T03:36:45;96485.97;;;9.98
76347;BMP280;73309;48.818;9.806;2023-12-28T03:39:10;96485.47;;;9.99
76347;BMP280;73309;48.818;9.806;2023-12-28T03:41:36;96482.16;;;10.01
76347;BMP280;73309;48.818;9.806;2023-12-28T03:44:01;96487.78;;;10.01
76347;BMP280;73309;48.818;9.806;2023-12-28T03:46:26;96488.56;;;10.01
76347;BMP280;73309;48.818;9.806;2023-12-28T03:48:52;96500.63;;;10.02
76347;BMP280;73309;48.818;9.806;2023-12-28T03:51:19;96495.75;;;10.02
76347;BMP280;73309;48.818;9.806;2023-12-28T03:53:44;96502.19;;;10.03
76347;BMP280;73309;48.818;9.806;2023-12-28T03:56:18;96509.66;;;10.06
76347;BMP280;73309;48.818;9.806;2023-12-28T03:58:43;96509.66;;;10.06
76347;BMP280;73309;48.818;9.806;2023-12-28T04:01:09;96501.97;;;10.06
76347;BMP280;73309;48.818;9.806;2023-12-28T04:03:35;96508.41;;;10.07
76347;BMP280;73309;48.818;9.806;2023-12-28T04:06:00;96504.31;;;10.08
76347;BMP280;73309;48.818;9.806;2023-12-28T04:08:27;96453.41;;;9.71
76347;BMP280;73309;48.818;9.806;2023-12-28T04:10:52;96501.75;;;10.10
76347;BMP280;73309;48.818;9.806;2023-12-28T04:13:18;96501.75;;;10.10
76347;BMP280;73309;48.818;9.806;2023-12-28T04:15:43;96501.75;;;10.10
76347;BMP280;73309;48.818;9.806;2023-12-28T04:18:08;96501.75;;;10.10
76347;BMP280;73309;48.818;9.806;2023-12-28T04:20:34;96495.91;;;10.13
76347;BMP280;73309;48.818;9.806;2023-12-28T04:22:59;96488.50;;;10.16
76347;BMP280;73309;48.818;9.806;2023-12-28T04:25:26;96485.19;;;10.17
76347;BMP280;73309;48.818;9.806;2023-12-28T04:27:51;96483.44;;;10.20
76347;BMP280;73309;48.818;9.806;2023-12-28T04:30:17;96477.78;;;10.20
76347;BMP280;73309;48.818;9.806;2023-12-28T04:32:42;96475.72;;;10.20
76347;BMP280;73309;48.818;9.806;2023-12-28T04:35:08;96477.28;;;10.21
76347;BMP280;73309;48.818;9.806;2023-12-28T04:37:33;96471.91;;;10.23
76347;BMP280;73309;48.818;9.806;2023-12-28T04:39:59;96466.28;;;10.23
76347;BMP280;73309;48.818;9.806;2023-12-28T04:42:26;96467.06;;;10.24
76347;BMP280;73309;48.818;9.806;2023-12-28T04:44:51;96470.66;;;10.24
76347;BMP280;73309;48.818;9.806;2023-12-28T04:47:16;96419.53;;;9.91
76347;BMP280;73309;48.818;9.806;2023-12-28T04:49:42;96456.06;;;10.26
76347;BMP280;73309;48.818;9.806;2023-12-28T04:52:07;96468.88;;;10.27
76347;BMP280;73309;48.818;9.806;2023-12-28T04:54:32;96468.88;;;10.27
76347;BMP280;73309;48.818;9.806;2023-12-28T04:56:58;96464.03;;;10.27
76347;BMP280;73309;48.818;9.806;2023-12-28T04:59:25;96474.03;;;10.28
76347;BMP280;73309;48.818;9.806;2023-12-28T05:01:50;96470.41;;;10.28
76347;BMP280;73309;48.818;9.806;2023-12-28T05:04:16;96473.25;;;10.28
76347;BMP280;73309;48.818;9.806;2023-12-28T05:06:41;96471.97;;;10.29
76347;BMP280;73309;48.818;9.806;2023-12-28T05:09:06;96477.91;;;10.31
76347;BMP280;73309;48.818;9.806;2023-12-28T05:11:32;96473.00;;;10.31
76347;BMP280;73309;48.818;9.806;2023-12-28T05:13:57;96481.22;;;10.29
76347;BMP280;73309;48.818;9.806;2023-12-28T05:16:24;96489.94;;;10.31
76347;BMP280;73309;48.818;9.806;2023-12-28T05:18:49;96484.28;;;10.31
76347;BMP280;73309;48.818;9.806;2023-12-28T05:21:15;96469.66;;;10.27
76347;BMP280;73309;48.818;9.806;2023-12-28T05:23:41;96463.78;;;10.31
76347;BMP280;73309;48.818;9.806;2023-12-28T05:26:06;96453.56;;;10.33
76347;BMP280;73309;48.818;9.806;2023-12-28T05:28:31;96458.44;;;10.33
76347;BMP280;73309;48.818;9.806;2023-12-28T05:30:57;96462.03;;;10.33
76347;BMP280;73309;48.818;9.806;2023-12-28T05:33:24;96459.47;;;10.35
76347;BMP280;73309;48.818;9.806;2023-12-28T05:35:49;96472.28;;;10.36
76347;BMP280;73309;48.818;9.806;2023-12-28T05:38:14;96481.53;;;10.37
76347;BMP280;73309;48.818;9.806;2023-12-28T05:40:40;96476.66;;;10.37
76347;BMP280;73309;48.818;9.806;2023-12-28T05:43:05;96479.78;;;10.39
76347;BMP280;73309;48.818;9.806;2023-12-28T05:45:30;96476.16;;;10.39
76347;BMP280;73309;48.818;9.806;2023-12-28T05:47:56;96486.97;;;10.40
76347;BMP280;73309;48.818;9.806;2023-12-28T05:50:23;96498.25;;;10.40
76347;BMP280;73309;48.818;9.806;2023-12-28T05:52:48;96506.22;;;10.42
76347;BMP280;73309;48.818;9.806;2023-12-28T05:55:14;96499.78;;;10.41
76347;BMP280;73309;48.818;9.806;2023-12-28T05:57:39;96492.88;;;10.42
76347;BMP280;73309;48.818;9.806;2023-12-28T06:00:05;96500.06;;;10.43
76347;BMP280;73309;48.818;9.806;2023-12-28T06:02:31;96498.81;;;10.44
76347;BMP280;73309;48.818;9.806;2023-12-28T06:04:57;96499.78;;;10.41
76347;BMP280;73309;48.818;9.806;2023-12-28T06:07:23;96501.63;;;10.44
76347;BMP280;73309;48.818;9.806;2023-12-28T06:09:49;96517.28;;;10.45
76347;BMP280;73309;48.818;9.806;2023-12-28T06:12:14;96523.66;;;10.46
76347;BMP280;73309;48.818;9.806;2023-12-28T06:14:39;96520.34;;;10.47
76347;BMP280;73309;48.818;9.806;2023-12-28T06:17:05;96516.47;;;10.45
76347;BMP280;73309;48.818;9.806;2023-12-28T06:19:30;96515.19;;;10.46
76347;BMP280;73309;48.818;9.806;2023-12-28T06:21:56;96525.25;;;10.47
76347;BMP280;73309;48.818;9.806;2023-12-28T06:24:22;96538.06;;;10.48
76347;BMP280;73309;48.818;9.806;2023-12-28T06:26:48;96536.78;;;10.49
76347;BMP280;73309;48.818;9.806;2023-12-28T06:29:13;96533.19;;;10.48
76347;BMP280;73309;48.818;9.806;2023-12-28T06:31:39;96540.09;;;10.47
76347;BMP280;73309;48.818;9.806;2023-12-28T06:34:04;96538.81;;;10.48
76347;BMP280;73309;48.818;9.806;2023-12-28T06:36:30;96509.13;;;10.27
76347;BMP280;73309;48.818;9.806;2023-12-28T06:38:55;96551.66;;;10.49
76347;BMP280;73309;48.818;9.806;2023-12-28T06:41:22;96543.19;;;10.49
76347;BMP280;73309;48.818;9.806;2023-12-28T06:43:48;96550.41;;;10.50
76347;BMP280;73309;48.818;9.806;2023-12-28T06:46:13;96518.22;;;10.37
76347;BMP280;73309;48.818;9.806;2023-12-28T06:48:38;96549.88;;;10.52
76347;BMP280;73309;48.818;9.806;2023-12-28T06:51:04;96540.38;;;10.49
76347;BMP280;73309;48.818;9.806;2023-12-28T06:53:30;96550.41;;;10.50
76347;BMP280;73309;48.818;9.806;2023-12-28T06:55:55;96550.41;;;10.50
76347;BMP280;73309;48.818;9.806;2023-12-28T06:58:22;96553.22;;;10.50
76347;BMP280;73309;48.818;9.806;2023-12-28T07:00:47;96553.97;;;10.51
76347;BMP280;73309;48.818;9.806;2023-12-28T07:03:13;96550.66;;;10.52
76347;BMP280;73309;48.818;9.806;2023-12-28T07:05:38;96552.69;;;10.52
76347;BMP280;73309;48.818;9.806;2023-12-28T07:08:04;96537.84;;;10.51
76347;BMP280;73309;48.818;9.806;2023-12-28T07:10:29;96535.03;;;10.51
76347;BMP280;73309;48.818;9.806;2023-12-28T07:12:55;96536.81;;;10.54
76347;BMP280;73309;48.818;9.806;2023-12-28T07:15:21;96538.41;;;10.55
76347;BMP280;73309;48.818;9.806;2023-12-28T07:17:47;96545.28;;;10.54
76347;BMP280;73309;48.818;9.806;2023-12-28T07:20:12;96534.31;;;10.56
76347;BMP280;73309;48.818;9.806;2023-12-28T07:22:38;96515.91;;;10.41
76347;BMP280;73309;48.818;9.806;2023-12-28T07:25:05;96546.34;;;10.57
76347;BMP280;73309;48.818;9.806;2023-12-28T07:27:30;96545.59;;;10.56
76347;BMP280;73309;48.818;9.806;2023-12-28T07:29:56;96539.16;;;10.56
76347;BMP280;73309;48.818;9.806;2023-12-28T07:32:22;96539.16;;;10.56
76347;BMP280;73309;48.818;9.806;2023-12-28T07:34:48;96536.59;;;10.58
76347;BMP280;73309;48.818;9.806;2023-12-28T07:37:13;96540.22;;;10.58
76347;BMP280;73309;48.818;9.806;2023-12-28T07:39:40;96548.69;;;10.58
76347;BMP280;73309;48.818;9.806;2023-12-28T07:42:05;96558.69;;;10.59
76347;BMP280;73309;48.818;9.806;2023-12-28T07:44:31;96559.47;;;10.60
76347;BMP280;73309;48.818;9.806;2023-12-28T07:46:56;96567.16;;;10.59
76347;BMP280;73309;48.818;9.806;2023-12-28T07:49:23;96566.38;;;10.59
76347;BMP280;73309;48.818;9.806;2023-12-28T07:51:48;96564.81;;;10.58
76347;BMP280;73309;48.818;9.806;2023-12-28T07:54:14;96565.34;;;10.56
76347;BMP280;73309;48.818;9.806;2023-12-28T07:56:39;96568.28;;;10.67
76347;BMP280;73309;48.818;9.806;2023-12-28T07:59:04;96566.28;;;10.73
76347;BMP280;73309;48.818;9.806;2023-12-28T08:01:30;96569.63;;;10.77
76347;BMP280;73309;48.818;9.806;2023-12-28T08:03:55;96568.38;;;10.78
76347;BMP280;73309;48.818;9.806;2023-12-28T08:06:22;96569.91;;;10.79
76347;BMP280;73309;48.818;9.806;2023-12-28T08:08:47;96574.03;;;10.78
76347;BMP280;73309;48.818;9.806;2023-12-28T08:11:13;96574.28;;;10.80
76347;BMP280;73309;48.818;9.806;2023-12-28T08:13:38;96583.03;;;10.82
76347;BMP280;73309;48.818;9.806;2023-12-28T08:16:04;96589.44;;;10.83
76347;BMP280;73309;48.818;9.806;2023-12-28T08:18:30;96585.84;;;10.82
76347;BMP280;73309;48.818;9.806;2023-12-28T08:20:55;96589.94;;;10.81
76347;BMP280;73309;48.818;9.806;2023-12-28T08:23:22;96596.38;;;10.82
76347;BMP280;73309;48.818;9.806;2023-12-28T08:25:47;96581.31;;;10.90
76347;BMP280;73309;48.818;9.806;2023-12-28T08:28:13;96593.75;;;11.04
76347;BMP280;73309;48.818;9.806;2023-12-28T08:30:38;96590.47;;;11.11
76347;BMP280;73309;48.818;9.806;2023-12-28T08:33:04;96592.28;;;11.14
76347;BMP280;73309;48.818;9.806;2023-12-28T08:35:29;96585.34;;;11.15
76347;BMP280;73309;48.818;9.806;2023-12-28T08:37:55;96581.28;;;11.16
76347;BMP280;73309;48.818;9.806;2023-12-28T08:40:21;96580.75;;;11.17
76347;BMP280;73309;48.818;9.806;2023-12-28T08:42:47;96571.53;;;11.17
76347;BMP280;73309;48.818;9.806;2023-12-28T08:45:12;96571.78;;;11.19
76347;BMP280;73309;48.818;9.806;2023-12-28T08:47:38;96576.16;;;11.20
76347;BMP280;73309;48.818;9.806;2023-12-28T08:50:04;96571.84;;;11.24
76347;BMP280;73309;48.818;9.806;2023-12-28T08:52:29;96560.56;;;11.24
76347;BMP280;73309;48.818;9.806;2023-12-28T08:54:55;96569.78;;;11.25
76347;BMP280;73309;48.818;9.806;2023-12-28T08:57:21;96429.44;;;10.32
76347;BMP280;73309;48.818;9.806;2023-12-28T08:59:47;96574.69;;;11.24
76347;BMP280;73309;48.818;9.806;2023-12-28T09:02:12;96575.94;;;11.23
76347;BMP280;73309;48.818;9.806;2023-12-28T09:04:38;96581.09;;;11.25
76347;BMP280;73309;48.818;9.806;2023-12-28T09:07:03;96583.91;;;11.25
76347;BMP280;73309;48.818;9.806;2023-12-28T09:09:29;96588.56;;;11.28
76347;BMP280;73309;48.818;9.806;2023-12-28T09:11:54;96590.09;;;11.29
76347;BMP280;73309;48.818;9.806;2023-12-28T09:14:21;96589.88;;;11.32
76347;BMP280;73309;48.818;9.806;2023-12-28T09:16:47;96580.63;;;11.32
76347;BMP280;73309;48.818;9.806;2023-12-28T09:19:13;96595.03;;;11.34
76347;BMP280;73309;48.818;9.806;2023-12-28T09:21:38;96592.97;;;11.34
76347;BMP280;73309;48.818;9.806;2023-12-28T09:24:04;96598.63;;;11.34
76347;BMP280;73309;48.818;9.806;2023-12-28T09:26:29;96596.06;;;11.36
76347;BMP280;73309;48.818;9.806;2023-12-28T09:28:55;96602.00;;;11.38
76347;BMP280;73309;48.818;9.806;2023-12-28T09:31:21;96595.59;;;11.38
76347;BMP280;73309;48.818;9.806;2023-12-28T09:33:47;96585.03;;;11.38
76347;BMP280;73309;48.818;9.806;2023-12-28T09:36:12;96583.25;;;11.41
76347;BMP280;73309;48.818;9.806;2023-12-28T09:38:37;96584.81;;;11.42
76347;BMP280;73309;48.818;9.806;2023-12-28T09:41:09;96588.13;;;11.40
76347;BMP280;73309;48.818;9.806;2023-12-28T09:43:38;96593.28;;;11.42
76347;BMP280;73309;48.818;9.806;2023-12-28T09:46:06;96598.94;;;11.42
76347;BMP280;73309;48.818;9.806;2023-12-28T09:48:33;96569.38;;;11.37
76347;BMP280;73309;48.818;9.806;2023-12-28T09:50:59;96586.34;;;11.43
76347;BMP280;73309;48.818;9.806;2023-12-28T09:53:25;96577.38;;;11.44
76347;BMP280;73309;48.818;9.806;2023-12-28T09:55:51;96583.81;;;11.45
76347;BMP280;73309;48.818;9.806;2023-12-28T09:58:18;96591.00;;;11.46
76347;BMP280;73309;48.818;9.806;2023-12-28T10:00:44;96593.34;;;11.47
76347;BMP280;73309;48.818;9.806;2023-12-28T10:03:11;96585.63;;;11.48
76347;BMP280;73309;48.818;9.806;2023-12-28T10:05:40;96580.25;;;11.50
76347;BMP280;73309;48.818;9.806;2023-12-28T10:08:05;96583.09;;;11.50
76347;BMP280;73309;48.818;9.806;2023-12-28T10:10:31;96582.84;;;11.53
76347;BMP280;73309;48.818;9.806;2023-12-28T10:12:56;96579.53;;;11.55
76347;BMP280;73309;48.818;9.806;2023-12-28T10:15:22;96579.78;;;11.57
76347;BMP280;73309;48.818;9.806;2023-12-28T10:17:47;96580.84;;;11.59
76347;BMP280;73309;48.818;9.806;2023-12-28T10:20:14;96572.63;;;11.61
76347;BMP280;73309;48.818;9.806;2023-12-28T10:22:40;96578.59;;;11.63
76347;BMP280;73309;48.818;9.806;2023-12-28T10:25:07;96573.69;;;11.64
76347;BMP280;73309;48.818;9.806;2023-12-28T10:27:37;96582.94;;;11.64
76347;BMP280;73309;48.818;9.806;2023-12-28T10:30:04;96581.66;;;11.65
76347;BMP280;73309;48.818;9.806;2023-12-28T10:32:30;96574.47;;;11.64
76347;BMP280;73309;48.818;9.806;2023-12-28T10:34:55;96572.69;;;11.67
76347;BMP280;73309;48.818;9.806;2023-12-28T10:37:21;96581.16;;;11.67
76347;BMP280;73309;48.818;9.806;2023-12-28T10:39:48;96584.75;;;11.67
76347;BMP280;73309;48.818;9.806;2023-12-28T10:42:20;96577.06;;;11.68
76347;BMP280;73309;48.818;9.806;2023-12-28T10:44:50;96579.38;;;11.69
76347;BMP280;73309;48.818;9.806;2023-12-28T10:47:19;96572.16;;;11.63
76347;BMP280;73309;48.818;9.806;2023-12-28T10:49:48;96579.16;;;11.73
76347;BMP280;73309;48.818;9.806;2023-12-28T10:52:16;96572.72;;;11.72
76347;BMP280;73309;48.818;9.806;2023-12-28T10:54:50;96575.28;;;11.76
76347;BMP280;73309;48.818;9.806;2023-12-28T10:57:23;96569.94;;;11.78
76347;BMP280;73309;48.818;9.806;2023-12-28T10:59:58;96579.94;;;11.79
76347;BMP280;73309;48.818;9.806;2023-12-28T11:02:28;96576.63;;;11.80
76347;BMP280;73309;48.818;9.806;2023-12-28T11:04:54;96575.59;;;11.83
76347;BMP280;73309;48.818;9.806;2023-12-28T11:07:21;96567.38;;;11.85
76347;BMP280;73309;48.818;9.806;2023-12-28T11:09:48;96562.00;;;11.87
76347;BMP280;73309;48.818;9.806;2023-12-28T11:12:15;96558.69;;;11.89
76347;BMP280;73309;48.818;9.806;2023-12-28T11:14:42;96572.03;;;11.93
76347;BMP280;73309;48.818;9.806;2023-12-28T11:17:09;96567.97;;;11.95
76347;BMP280;73309;48.818;9.806;2023-12-28T11:19:36;96559.75;;;12.02
76347;BMP280;73309;48.818;9.806;2023-12-28T11:22:03;96552.63;;;12.18
76347;BMP280;73309;48.818;9.806;2023-12-28T11:24:29;96552.44;;;12.32
76347;BMP280;73309;48.818;9.806;2023-12-28T11:26:57;96548.84;;;12.42
76347;BMP280;73309;48.818;9.806;2023-12-28T11:29:23;96545.28;;;12.47
76347;BMP280;73309;48.818;9.806;2023-12-28T11:31:51;96544.50;;;12.52
76347;BMP280;73309;48.818;9.806;2023-12-28T11:34:16;96543.22;;;12.53
76347;BMP280;73309;48.818;9.806;2023-12-28T11:36:45;96536.53;;;12.51
76347;BMP280;73309;48.818;9.806;2023-12-28T11:39:12;96529.31;;;12.55
76347;BMP280;73309;48.818;9.806;2023-12-28T11:41:44;96530.63;;;12.54
76347;BMP280;73309;48.818;9.806;2023-12-28T11:44:11;96526.25;;;12.53
76347;BMP280;73309;48.818;9.806;2023-12-28T11:46:36;96536.03;;;12.58
76347;BMP280;73309;48.818;9.806;2023-12-28T11:49:05;96511.84;;;12.57
76347;BMP280;73309;48.818;9.806;2023-12-28T11:51:30;96522.13;;;12.49
76347;BMP280;73309;48.818;9.806;2023-12-28T11:53:56;96525.22;;;12.51
76347;BMP280;73309;48.818;9.806;2023-12-28T11:56:21;96517.44;;;12.35
76347;BMP280;73309;48.818;9.806;2023-12-28T11:58:47;96533.09;;;12.25
76347;BMP280;73309;48.818;9.806;2023-12-28T12:01:13;96533.34;;;12.21
76347;BMP280;73309;48.818;9.806;2023-12-28T12:03:39;96527.69;;;12.16
76347;BMP280;73309;48.818;9.806;2023-12-28T12:06:05;96524.56;;;12.08
76347;BMP280;73309;48.818;9.806;2023-12-28T12:08:30;96519.13;;;11.99
76347;BMP280;73309;48.818;9.806;2023-12-28T12:11:02;96512.91;;;11.90
76347;BMP280;73309;48.818;9.806;2023-12-28T12:13:27;96502.41;;;11.91
76347;BMP280;73309;48.818;9.806;2023-12-28T12:15:53;96501.66;;;11.96
76347;BMP280;73309;48.818;9.806;2023-12-28T12:18:20;96502.16;;;11.99
76347;BMP280;73309;48.818;9.806;2023-12-28T12:20:45;96505.97;;;11.86
76347;BMP280;73309;48.818;9.806;2023-12-28T12:23:11;96505.97;;;11.91
76347;BMP280;73309;48.818;9.806;2023-12-28T12:25:36;96491.59;;;11.89
76347;BMP280;73309;48.818;9.806;2023-12-28T12:28:01;96499.56;;;11.91
76347;BMP280;73309;48.818;9.806;2023-12-28T12:30:27;96494.22;;;11.98
76347;BMP280;73309;48.818;9.806;2023-12-28T12:32:52;96498.31;;;12.02
76347;BMP280;73309;48.818;9.806;2023-12-28T12:35:20;96500.91;;;12.06
76347;BMP280;73309;48.818;9.806;2023-12-28T12:37:46;96497.03;;;11.98
76347;BMP280;73309;48.818;9.806;2023-12-28T12:40:12;96505.03;;;12.10
76347;BMP280;73309;48.818;9.806;2023-12-28T12:42:37;96511.72;;;12.13
76347;BMP280;73309;48.818;9.806;2023-12-28T12:45:03;96498.88;;;12.12
76347;BMP280;73309;48.818;9.806;2023-12-28T12:47:32;96500.94;;;12.12
76347;BMP280;73309;48.818;9.806;2023-12-28T12:49:58;96503.53;;;12.15
76347;BMP280;73309;48.818;9.806;2023-12-28T12:52:25;96430.66;;;11.82
76347;BMP280;73309;48.818;9.806;2023-12-28T12:54:54;96493.78;;;12.27
76347;BMP280;73309;48.818;9.806;2023-12-28T12:57:19;96493.78;;;12.27
76347;BMP280;73309;48.818;9.806;2023-12-28T12:59:45;96491.19;;;12.29
76347;BMP280;73309;48.818;9.806;2023-12-28T13:02:10;96489.41;;;12.31
76347;BMP280;73309;48.818;9.806;2023-12-28T13:04:37;96484.53;;;12.32
76347;BMP280;73309;48.818;9.806;2023-12-28T13:07:03;96495.84;;;12.37
76347;BMP280;73309;48.818;9.806;2023-12-28T13:09:30;96488.91;;;12.33
76347;BMP280;73309;48.818;9.806;2023-12-28T13:11:56;96488.91;;;12.38
76347;BMP280;73309;48.818;9.806;2023-12-28T13:14:21;96483.00;;;12.36
76347;BMP280;73309;48.818;9.806;2023-12-28T13:16:46;96482.50;;;12.38
76347;BMP280;73309;48.818;9.806;2023-12-28T13:19:12;96478.13;;;12.37
76347;BMP280;73309;48.818;9.806;2023-12-28T13:21:37;96474.50;;;12.36
76347;BMP280;73309;48.818;9.806;2023-12-28T13:24:03;96486.59;;;12.37
76347;BMP280;73309;48.818;9.806;2023-12-28T13:26:30;96483.50;;;12.35
76347;BMP280;73309;48.818;9.806;2023-12-28T13:28:55;96493.78;;;12.32
76347;BMP280;73309;48.818;9.806;2023-12-28T13:31:20;96485.28;;;12.32
76347;BMP280;73309;48.818;9.806;2023-12-28T13:33:46;96487.09;;;12.30
76347;BMP280;73309;48.818;9.806;2023-12-28T13:36:11;96479.88;;;12.29
76347;BMP280;73309;48.818;9.806;2023-12-28T13:38:37;96485.78;;;12.25
76347;BMP280;73309;48.818;9.806;2023-12-28T13:41:02;96487.09;;;12.24
76347;BMP280;73309;48.818;9.806;2023-12-28T13:43:29;96481.41;;;12.19
76347;BMP280;73309;48.818;9.806;2023-12-28T13:45:54;96484.50;;;12.21
76347;BMP280;73309;48.818;9.806;2023-12-28T13:48:20;96478.06;;;12.20
76347;BMP280;73309;48.818;9.806;2023-12-28T13:50:45;96482.97;;;12.20
76347;BMP280;73309;48.818;9.806;2023-12-28T13:53:11;96498.91;;;12.18
76347;BMP280;73309;48.818;9.806;2023-12-28T13:55:36;96500.16;;;12.16
76347;BMP280;73309;48.818;9.806;2023-12-28T13:58:01;96494.00;;;12.13
76347;BMP280;73309;48.818;9.806;2023-12-28T14:00:28;96488.06;;;12.10
76347;BMP280;73309;48.818;9.806;2023-12-28T14:02:53;96482.16;;;12.03